Time;durP1;ratioP1;P1;durP2;ratioP2;P2;SDS_P1;SDS_P2;PMS_P1;PMS_P2;Temp;Humidity;BMP_temperature;BMP_pressure;BME280_temperature;BME280_humidity;BME280_pressure;Samples;Min_cycle;Max_cycle;Signal;HPM_P1;HPM_P2
2022/01/31 00:00:20;;;;;;;16.23;7.00;;;4.60;1.00;5.10;100939.00;;;;5048890;28;20482;-80
2022/01/31 00:02:49;;;;;;;21.30;6.47;;;4.60;1.00;5.10;100914.00;;;;5048402;28;20448;-79
2022/01/31 00:05:18;;;;;;;15.57;5.67;;;4.60;1.00;5.10;67390.00;;;;5058676;28;20443;-78
2022/01/31 00:07:46;;;;;;;23.47;6.30;;;4.60;1.00;5.10;100932.00;;;;5057542;28;20451;-77
2022/01/31 00:10:17;;;;;;;14.30;6.80;;;4.50;1.00;5.10;100930.00;;;;5062720;28;20467;-77
2022/01/31 00:12:54;;;;;;;18.77;5.90;;;4.50;1.00;5.00;100884.00;;;;5051759;28;20758;-80
2022/01/31 00:15:24;;;;;;;18.97;7.10;;;4.60;1.00;5.00;100831.00;;;;5047076;28;21061;-77
2022/01/31 00:17:52;;;;;;;15.30;6.20;;;4.50;1.00;5.00;67357.00;;;;5049484;28;20467;-79
2022/01/31 00:20:21;;;;;;;18.13;6.93;;;4.40;1.00;4.90;100862.00;;;;5054812;28;20476;-81
2022/01/31 00:22:49;;;;;;;19.03;9.00;;;4.40;1.00;4.90;67343.00;;;;5044587;28;20448;-78
2022/01/31 00:25:18;;;;;;;20.50;6.00;;;4.40;1.00;4.80;100808.00;;;;5047382;28;20463;-79
2022/01/31 00:27:47;;;;;;;17.37;6.40;;;4.20;1.00;4.80;67314.00;;;;5044832;28;20463;-78
2022/01/31 00:30:17;;;;;;;15.23;6.00;;;4.20;1.00;4.70;100814.00;;;;5046373;28;20888;-80
2022/01/31 00:32:47;;;;;;;13.80;6.50;;;4.20;1.00;4.80;100793.00;;;;5047980;28;20571;-78
2022/01/31 00:35:16;;;;;;;15.57;5.97;;;4.20;1.00;4.80;100797.00;;;;5047253;28;20491;-80
2022/01/31 00:37:44;;;;;;;18.23;5.97;;;4.20;1.00;4.80;67328.00;;;;5047786;28;20456;-80
2022/01/31 00:40:13;;;;;;;12.37;5.13;;;4.30;1.00;4.80;100756.00;;;;5047878;28;20514;-81
2022/01/31 00:42:42;;;;;;;16.37;6.30;;;4.30;1.00;4.80;67319.00;;;;5052780;28;20920;-79
2022/01/31 00:45:16;;;;;;;23.13;6.23;;;4.30;1.00;4.80;100739.00;;;;5050759;28;20467;-80
2022/01/31 00:47:49;;;;;;;16.17;6.50;;;4.30;1.00;4.90;67339.00;;;;5051137;28;20539;-79
2022/01/31 00:50:19;;;;;;;16.17;6.37;;;4.40;1.00;4.90;100738.00;;;;5062328;28;21156;-79
2022/01/31 00:52:48;;;;;;;18.43;5.73;;;4.40;1.00;4.90;67348.00;;;;5047566;28;20501;-80
2022/01/31 00:55:17;;;;;;;18.50;5.67;;;4.40;1.00;5.00;67353.00;;;;5047255;28;20479;-81
2022/01/31 00:57:45;;;;;;;14.73;5.83;;;4.40;1.00;5.00;67357.00;;;;5046357;28;20566;-80
2022/01/31 01:00:16;;;;;;;11.60;4.53;;;4.50;1.00;5.00;100691.00;;;;5043221;28;20472;-81
2022/01/31 01:02:46;;;;;;;16.67;6.80;;;4.40;1.00;5.00;100688.00;;;;5059067;28;20463;-80
2022/01/31 01:05:17;;;;;;;17.73;6.10;;;4.40;1.00;5.00;100663.00;;;;5045449;28;20554;-82
2022/01/31 01:07:46;;;;;;;11.97;4.53;;;4.40;1.00;4.90;100660.00;;;;5044877;28;20535;-79
2022/01/31 01:10:16;;;;;;;9.80;5.33;;;4.40;1.00;4.80;100637.00;;;;5045435;28;20499;-83
2022/01/31 01:12:45;;;;;;;8.23;4.33;;;4.30;1.00;4.80;67311.00;;;;5060279;28;20972;-79
2022/01/31 01:15:15;;;;;;;12.40;4.67;;;4.30;1.00;4.70;100618.00;;;;5044479;28;20493;-78
2022/01/31 01:17:47;;;;;;;10.90;4.33;;;4.20;1.00;4.80;100576.00;;;;5043479;28;20487;-82
2022/01/31 01:20:16;;;;;;;14.87;4.23;;;4.30;1.00;4.80;100567.00;;;;5043978;28;20476;-79
2022/01/31 01:22:46;;;;;;;13.33;5.03;;;4.20;1.00;4.60;100570.00;;;;5042210;28;20459;-81
2022/01/31 01:25:15;;;;;;;12.80;4.60;;;4.10;1.00;4.60;100566.00;;;;5044844;28;20463;-79
2022/01/31 01:27:47;;;;;;;11.60;4.50;;;4.00;1.00;4.60;100563.00;;;;5060003;28;20459;-79
2022/01/31 01:30:15;;;;;;;13.43;5.30;;;4.00;1.00;4.50;100548.00;;;;5045514;28;20655;-79
2022/01/31 01:32:58;;;;;;;11.80;4.30;;;4.30;1.00;4.50;100516.00;;;;5044979;28;20456;-80
2022/01/31 01:35:33;;;;;;;13.27;6.53;;;4.00;1.00;4.50;100521.00;;;;5061931;28;20475;-79
2022/01/31 01:38:07;;;;;;;13.03;6.43;;;3.90;1.00;4.50;100535.00;;;;5043718;28;20861;-80
2022/01/31 01:40:39;;;;;;;13.70;6.27;;;3.90;1.00;4.50;100514.00;;;;5047082;28;20485;-82
2022/01/31 01:43:12;;;;;;;13.03;4.87;;;4.00;1.00;4.50;100508.00;;;;5063756;28;20462;-79
2022/01/31 01:45:43;;;;;;;12.87;5.40;;;4.00;1.00;4.50;100495.00;;;;5061684;28;20496;-81
2022/01/31 01:48:16;;;;;;;9.27;4.93;;;3.90;1.00;4.60;67261.00;;;;5045921;28;20486;-79
2022/01/31 01:50:46;;;;;;;14.40;5.83;;;4.00;1.00;4.60;67263.00;;;;5043641;28;20480;-80
2022/01/31 01:53:15;;;;;;;16.30;5.70;;;4.10;1.00;4.60;100470.00;;;;5043548;28;20487;-82
2022/01/31 01:55:45;;;;;;;13.47;5.00;;;4.10;1.00;4.60;100446.00;;;;5059024;28;20532;-81
2022/01/31 01:58:16;;;;;;;10.03;5.27;;;4.10;1.00;4.60;100452.00;;;;5043089;28;20456;-79
2022/01/31 02:00:58;;;;;;;10.13;5.00;;;4.10;1.00;4.70;100433.00;;;;5043484;28;20527;-82
2022/01/31 02:03:44;;;;;;;11.33;5.27;;;4.20;1.00;217.30;158671.00;;;;5051706;28;20460;-80
2022/01/31 02:06:13;;;;;;;13.77;5.60;;;4.20;1.00;217.30;158687.00;;;;5051992;28;21075;-79
2022/01/31 02:08:44;;;;;;;10.20;5.57;;;4.20;1.00;217.30;158711.00;;;;5048763;28;20456;-80
2022/01/31 02:11:26;;;;;;;10.13;5.20;;;4.20;1.00;4.80;100408.00;;;;5048860;28;20459;-79
2022/01/31 02:13:56;;;;;;;12.23;4.60;;;4.30;1.00;217.30;158742.00;;;;5047887;28;20491;-79
2022/01/31 02:17:04;;;;;;;12.53;5.37;;;4.30;1.00;4.90;100383.00;;;;4971492;28;20498;-80
2022/01/31 02:19:39;;;;;;;15.90;5.10;;;4.40;1.00;4.90;67347.00;;;;4957292;28;20479;-79
2022/01/31 02:22:20;;;;;;;14.40;5.60;;;4.40;1.00;217.30;158780.00;;;;5018259;28;20554;-80
2022/01/31 02:25:03;;;;;;;12.83;5.63;;;4.40;1.00;4.90;67347.00;;;;5055496;28;20451;-78
2022/01/31 02:27:35;;;;;;;11.67;5.90;;;4.50;1.00;4.90;100360.00;;;;5057086;28;20455;-79
2022/01/31 02:30:10;;;;;;;14.97;6.10;;;4.40;1.00;4.90;100363.00;;;;5056934;28;20476;-80
2022/01/31 02:32:44;;;;;;;14.57;5.17;;;4.40;1.00;5.00;100352.00;;;;5070791;28;20883;-81
2022/01/31 02:35:12;;;;;;;11.40;4.60;;;4.50;1.00;5.00;100358.00;;;;5052235;28;20829;-80
2022/01/31 02:37:42;;;;;;;16.47;5.20;;;4.60;1.00;217.30;158862.00;;;;5055649;28;21001;-80
2022/01/31 02:40:27;;;;;;;13.40;5.57;;;4.60;1.00;5.00;67371.00;;;;5056653;28;20552;-80
2022/01/31 02:42:58;;;;;;;10.50;5.70;;;4.60;1.00;217.30;158858.00;;;;5060734;28;20459;-80
2022/01/31 02:45:30;;;;;;;13.37;5.37;;;4.60;1.00;5.10;67378.00;;;;5068215;28;20598;-80
2022/01/31 02:48:02;;;;;;;8.90;5.10;;;4.60;1.00;5.10;100352.00;;;;5057767;28;20523;-80
2022/01/31 02:50:34;;;;;;;11.20;5.13;;;4.60;1.00;5.10;67390.00;;;;5049216;28;20471;-80
2022/01/31 02:53:14;;;;;;;17.20;5.80;;;4.90;1.00;217.30;158899.00;;;;5057427;28;20466;-80
2022/01/31 02:55:47;;;;;;;10.60;5.27;;;4.70;1.00;5.10;67395.00;;;;5059007;28;20853;-79
2022/01/31 02:58:19;;;;;;;16.00;6.70;;;4.70;1.00;5.20;100321.00;;;;5061304;28;20475;-79
2022/01/31 03:00:50;;;;;;;11.27;5.33;;;4.70;1.00;217.30;158862.00;;;;5052517;28;20549;-79
2022/01/31 03:03:44;;;;;;;17.43;6.80;;;4.70;1.00;217.30;158848.00;;;;5044349;28;20456;-80
2022/01/31 03:06:13;;;;;;;8.57;4.77;;;4.60;1.00;5.10;67390.00;;;;5050880;28;20479;-80
2022/01/31 03:08:42;;;;;;;6.27;4.60;;;4.60;1.00;5.10;100243.00;;;;5045377;28;20456;-79
2022/01/31 03:11:23;;;;;;;13.80;6.33;;;4.50;1.00;5.10;67382.00;;;;5062123;28;20505;-79
2022/01/31 03:14:03;;;;;;;11.93;4.70;;;4.70;1.00;217.30;158867.00;;;;5050546;28;20456;-79
2022/01/31 03:16:34;;;;;;;9.67;5.20;;;4.60;1.00;5.10;67384.00;;;;5048709;28;20468;-80
2022/01/31 03:19:02;;;;;;;13.13;4.93;;;4.60;1.00;5.10;67384.00;;;;5050514;28;20480;-80
2022/01/31 03:21:30;;;;;;;9.23;5.10;;;4.80;1.00;5.00;67384.00;;;;5051018;28;20471;-79
2022/01/31 03:24:00;;;;;;;11.00;5.40;;;4.60;1.00;5.10;67390.00;;;;5052757;28;20453;-79
2022/01/31 03:26:28;;;;;;;16.80;5.50;;;4.60;1.00;5.10;67393.00;;;;5058332;28;20587;-79
2022/01/31 03:28:57;;;;;;;11.20;5.17;;;4.70;1.00;5.20;100201.00;;;;5062803;28;20471;-79
2022/01/31 03:31:26;;;;;;;13.90;5.47;;;4.70;1.00;5.10;67390.00;;;;5079584;28;20466;-79
2022/01/31 03:33:56;;;;;;;12.13;5.70;;;4.70;1.00;5.10;67390.00;;;;5064509;28;20461;-80
2022/01/31 03:36:24;;;;;;;15.03;5.40;;;4.60;1.00;5.10;67384.00;;;;5060895;28;20511;-80
2022/01/31 03:38:53;;;;;;;14.40;5.10;;;4.60;1.00;5.10;67382.00;;;;5058938;28;20471;-80
2022/01/31 03:41:24;;;;;;;14.93;5.73;;;4.60;1.00;5.10;67382.00;;;;5059287;28;20452;-79
2022/01/31 03:43:52;;;;;;;9.53;5.27;;;4.60;1.00;5.10;67378.00;;;;5062377;28;20448;-80
2022/01/31 03:46:20;;;;;;;10.30;5.83;;;4.60;1.00;217.30;158862.00;;;;5063850;28;20554;-79
2022/01/31 03:48:49;;;;;;;13.73;5.00;;;4.70;1.00;5.10;67382.00;;;;5059598;28;20452;-80
2022/01/31 03:51:33;;;;;;;12.67;4.70;;;4.60;1.00;5.10;67381.00;;;;5060546;28;20478;-80
2022/01/31 03:54:03;;;;;;;10.60;5.23;;;4.60;1.00;5.10;67377.00;;;;5059324;28;20471;-79
2022/01/31 03:56:33;;;;;;;11.93;4.20;;;4.60;1.00;5.10;67378.00;;;;5059858;28;20483;-80
2022/01/31 03:59:22;;;;;;;10.10;4.00;;;4.60;1.00;217.30;158852.00;;;;5020976;28;20486;-80
2022/01/31 04:01:51;;;;;;;12.13;4.30;;;4.60;1.00;217.30;158858.00;;;;5060605;28;20448;-80
2022/01/31 04:04:20;;;;;;;12.07;5.17;;;4.60;1.00;5.10;100017.00;;;;5061179;28;20453;-80
2022/01/31 04:06:49;;;;;;;12.63;4.80;;;4.60;1.00;217.30;158879.00;;;;5060993;28;20483;-80
2022/01/31 04:09:17;;;;;;;12.23;5.23;;;4.70;1.00;5.10;67395.00;;;;5061956;28;20476;-80
2022/01/31 04:11:47;;;;;;;8.73;4.30;;;4.70;1.00;217.30;158889.00;;;;5061988;28;20486;-80
2022/01/31 04:14:15;;;;;;;10.70;4.30;;;4.70;1.00;5.20;67404.00;;;;5060588;28;20449;-80
2022/01/31 04:16:43;;;;;;;8.97;4.27;;;4.70;1.00;217.30;158915.00;;;;5057005;28;20472;-82
2022/01/31 04:19:11;;;;;;;12.27;4.70;;;4.80;1.00;5.20;99978.00;;;;5051860;28;20610;-78
2022/01/31 04:21:40;;;;;;;18.70;5.10;;;4.80;1.00;5.30;99957.00;;;;5055979;28;20464;-79
2022/01/31 04:24:08;;;;;;;11.43;4.37;;;4.80;1.00;5.30;99957.00;;;;5057248;28;20466;-79
2022/01/31 04:26:44;;;;;;;8.93;4.40;;;4.80;1.00;5.30;99936.00;;;;5059544;28;20483;-80
2022/01/31 04:29:18;;;;;;;13.03;4.93;;;4.80;1.00;5.20;67417.00;;;;5056688;28;20824;-82
2022/01/31 04:31:49;;;;;;;11.13;4.33;;;4.80;1.00;5.20;67417.00;;;;5051190;28;20460;-81
2022/01/31 04:34:18;;;;;;;10.67;4.03;;;4.80;1.00;5.20;99916.00;;;;5050073;28;20451;-81
2022/01/31 04:36:46;;;;;;;14.20;4.83;;;4.80;1.00;5.20;99902.00;;;;5049168;28;20488;-80
2022/01/31 04:39:18;;;;;;;11.00;4.77;;;4.80;1.00;5.20;67414.00;;;;5047594;28;20480;-81
2022/01/31 04:41:49;;;;;;;9.77;4.83;;;4.80;1.00;217.30;158929.00;;;;5048789;28;20484;-80
2022/01/31 04:44:18;;;;;;;5.37;2.90;;;4.80;1.00;5.20;99880.00;;;;5050067;28;20785;-79
2022/01/31 04:46:49;;;;;;;9.50;4.30;;;4.80;1.00;5.20;99871.00;;;;5051230;28;20502;-80
2022/01/31 04:49:19;;;;;;;9.67;3.93;;;4.70;1.00;5.20;67401.00;;;;5047614;28;20468;-81
2022/01/31 04:51:47;;;;;;;11.60;4.60;;;4.70;1.00;5.10;99854.00;;;;5046813;28;20448;-80
2022/01/31 04:54:16;;;;;;;10.80;4.80;;;4.70;1.00;5.10;67378.00;;;;5047555;28;20597;-80
2022/01/31 04:56:46;;;;;;;12.50;6.17;;;4.60;1.00;5.00;99857.00;;;;5048402;28;21376;-80
2022/01/31 04:59:14;;;;;;;10.43;4.20;;;4.60;1.00;4.90;67339.00;;;;5046208;28;20503;-80
2022/01/31 05:01:46;;;;;;;15.17;5.23;;;4.50;1.00;4.80;99849.00;;;;5047961;28;20479;-83
2022/01/31 05:04:15;;;;;;;13.53;5.80;;;4.40;1.00;4.70;99826.00;;;;5048268;28;20502;-79
2022/01/31 05:06:45;;;;;;;12.77;5.47;;;4.30;1.00;217.30;158655.00;;;;5047376;28;20818;-81
2022/01/31 05:09:13;;;;;;;11.27;4.43;;;4.20;1.00;4.50;99830.00;;;;5053075;28;20499;-81
2022/01/31 05:11:42;;;;;;;12.53;6.30;;;4.10;1.00;4.50;67250.00;;;;5054917;28;20494;-82
2022/01/31 05:14:10;;;;;;;14.30;6.00;;;4.10;1.00;4.40;99820.00;;;;5054743;28;20463;-79
2022/01/31 05:16:39;;;;;;;13.23;5.77;;;4.00;1.00;4.40;99820.00;;;;5055968;28;20525;-79
2022/01/31 05:19:08;;;;;;;12.67;5.93;;;4.00;1.00;217.30;158556.00;;;;5053592;28;20487;-80
2022/01/31 05:21:38;;;;;;;12.93;5.67;;;3.90;1.00;217.30;158540.00;;;;5055276;28;20460;-79
2022/01/31 05:24:07;;;;;;;13.13;6.53;;;3.90;1.00;4.30;67205.00;;;;5069324;28;20432;-81
2022/01/31 05:26:36;;;;;;;12.30;6.93;;;3.90;1.00;4.30;67205.00;;;;5062527;28;20525;-80
2022/01/31 05:29:04;;;;;;;13.77;6.57;;;3.90;1.00;4.30;99798.00;;;;5052606;28;20566;-81
2022/01/31 05:31:32;;;;;;;27.60;7.60;;;3.90;1.00;4.30;99788.00;;;;5055187;28;20452;-79
2022/01/31 05:34:01;;;;;;;14.57;6.60;;;3.80;1.00;4.30;99776.00;;;;5054759;28;20883;-81
2022/01/31 05:36:30;;;;;;;17.77;6.87;;;3.80;1.00;4.30;99788.00;;;;5048095;28;20479;-80
2022/01/31 05:38:58;;;;;;;12.00;6.30;;;3.80;1.00;4.30;67203.00;;;;5048946;28;20487;-81
2022/01/31 05:41:26;;;;;;;16.53;7.93;;;3.80;1.00;4.30;99793.00;;;;5047452;28;20491;-80
2022/01/31 05:43:55;;;;;;;16.57;7.00;;;3.90;1.00;4.30;99783.00;;;;5050886;28;20452;-81
2022/01/31 05:46:23;;;;;;;21.57;7.40;;;3.90;1.00;4.30;99784.00;;;;5053198;28;20458;-83
2022/01/31 05:48:52;;;;;;;18.27;8.70;;;3.90;1.00;4.30;99789.00;;;;5055796;28;20834;-81
2022/01/31 05:51:23;;;;;;;12.57;7.20;;;3.90;1.00;4.40;99788.00;;;;5056759;28;20455;-82
2022/01/31 05:53:53;;;;;;;18.43;7.63;;;3.90;1.00;4.40;67234.00;;;;5055822;28;20456;-81
2022/01/31 05:56:21;;;;;;;13.33;7.23;;;4.00;1.00;4.40;99765.00;;;;5054273;28;20492;-82
2022/01/31 05:58:50;;;;;;;14.33;7.57;;;4.00;1.00;4.40;99759.00;;;;5057169;28;20502;-82
2022/01/31 06:01:18;;;;;;;12.20;6.60;;;4.00;1.00;4.40;99748.00;;;;5056623;28;21525;-82
2022/01/31 06:03:47;;;;;;;15.17;7.00;;;4.00;1.00;4.40;99762.00;;;;5053596;28;20460;-81
2022/01/31 06:06:16;;;;;;;17.27;7.87;;;4.00;1.00;4.40;99762.00;;;;5056572;28;20455;-82
2022/01/31 06:08:44;;;;;;;12.27;6.50;;;4.00;1.00;217.30;158530.00;;;;5068469;28;20444;-81
2022/01/31 06:11:13;;;;;;;14.23;7.13;;;4.00;1.00;217.30;158588.00;;;;5061469;28;20463;-81
2022/01/31 06:13:45;;;;;;;15.87;8.00;;;4.00;1.00;4.50;67247.00;;;;5048141;28;20464;-81
2022/01/31 06:16:13;;;;;;;13.33;6.90;;;4.10;1.00;4.50;67247.00;;;;5067984;28;20456;-81
2022/01/31 06:18:41;;;;;;;17.60;7.57;;;4.10;1.00;4.50;67247.00;;;;5053523;28;20564;-82
2022/01/31 06:21:11;;;;;;;16.00;8.47;;;4.10;1.00;4.50;67252.00;;;;5048942;28;20957;-79
2022/01/31 06:23:39;;;;;;;11.20;6.50;;;4.10;1.00;4.50;67247.00;;;;5050502;28;20513;-79
2022/01/31 06:26:07;;;;;;;14.90;8.40;;;4.10;1.00;4.50;67256.00;;;;5055033;28;20459;-79
2022/01/31 06:28:38;;;;;;;14.20;6.77;;;4.10;1.00;217.30;158624.00;;;;5053476;28;20547;-82
2022/01/31 06:31:27;;;;;;;13.07;8.30;;;4.10;1.00;4.50;67256.00;;;;5056821;28;20821;-82
2022/01/31 06:33:55;;;;;;;16.03;8.27;;;4.10;1.00;217.30;158636.00;;;;5062650;28;20455;-82
2022/01/31 06:36:24;;;;;;;15.30;8.63;;;4.10;1.00;4.60;67272.00;;;;5059426;28;20479;-82
2022/01/31 06:38:53;;;;;;;11.50;7.10;;;4.20;1.00;217.30;158687.00;;;;5063325;28;20472;-80
2022/01/31 06:41:23;;;;;;;14.83;8.00;;;4.30;1.00;4.70;67302.00;;;;5061941;28;20463;-81
2022/01/31 06:44:02;;;;;;;14.00;8.43;;;4.60;1.00;4.80;67307.00;;;;5059604;28;20470;-81
2022/01/31 06:46:30;;;;;;;16.67;8.50;;;4.40;1.00;217.30;158726.00;;;;5054557;28;20513;-81
2022/01/31 06:48:58;;;;;;;18.70;8.80;;;4.40;1.00;4.80;67311.00;;;;5056663;28;20510;-80
2022/01/31 06:51:28;;;;;;;14.20;7.00;;;4.40;1.00;4.80;67328.00;;;;5055450;28;20554;-81
2022/01/31 06:53:57;;;;;;;14.70;8.20;;;4.50;1.00;4.70;67311.00;;;;5057284;28;20455;-81
2022/01/31 06:56:29;;;;;;;13.87;6.90;;;4.40;1.00;4.70;67302.00;;;;5061835;28;20726;-81
2022/01/31 06:58:59;;;;;;;13.80;7.10;;;4.40;1.00;4.70;67288.00;;;;5061556;28;20526;-80
2022/01/31 07:01:29;;;;;;;9.33;6.97;;;4.30;1.00;4.60;67283.00;;;;5064732;28;20475;-81
2022/01/31 07:03:57;;;;;;;15.33;5.93;;;4.50;1.00;217.30;158667.00;;;;5068598;28;20456;-81
2022/01/31 07:06:29;;;;;;;11.77;7.50;;;4.40;1.00;217.30;158738.00;;;;5066963;28;20455;-81
2022/01/31 07:08:59;;;;;;;8.93;6.13;;;4.70;1.00;4.80;67333.00;;;;5065337;28;20490;-80
2022/01/31 07:11:28;;;;;;;13.93;6.40;;;4.50;1.00;4.90;67336.00;;;;5060503;28;20467;-81
2022/01/31 07:14:03;;;;;;;11.63;5.50;;;4.60;1.00;4.90;67347.00;;;;5054291;28;20460;-80
2022/01/31 07:16:35;;;;;;;13.33;5.87;;;4.60;1.00;52.70;158774.00;;;;5058946;28;20485;-82
2022/01/31 07:19:07;;;;;;;8.10;5.80;;;4.60;1.00;5.00;67357.00;;;;5058224;28;20490;-82
2022/01/31 07:21:39;;;;;;;11.80;5.80;;;4.60;1.00;4.90;67352.00;;;;5070307;28;21024;-82
2022/01/31 07:24:21;;;;;;;8.90;4.80;;;4.60;1.00;217.30;158780.00;;;;5061053;28;20447;-82
2022/01/31 07:26:51;;;;;;;12.03;5.70;;;4.60;1.00;5.00;67339.00;;;;5059197;28;20459;-82
2022/01/31 07:29:20;;;;;;;6.83;3.07;;;4.60;1.00;5.00;99690.00;;;;5060506;28;20479;-82
2022/01/31 07:31:51;;;;;;;10.60;4.80;;;4.90;1.00;5.10;67382.00;;;;5062492;28;20455;-82
2022/01/31 07:34:20;;;;;;;6.80;3.80;;;4.90;1.00;5.20;67398.00;;;;5062448;28;20452;-82
2022/01/31 07:36:49;;;;;;;4.90;4.10;;;4.80;1.00;5.20;99696.00;;;;5061518;28;20452;-81
2022/01/31 07:39:21;;;;;;;6.57;4.10;;;4.90;1.00;5.30;99654.00;;;;5062270;28;20869;-81
2022/01/31 07:41:49;;;;;;;7.30;3.83;;;5.10;1.00;5.40;67441.00;;;;5061292;28;20515;-82
2022/01/31 07:44:18;;;;;;;7.73;4.70;;;5.00;1.00;5.40;67457.00;;;;5063748;28;20463;-82
2022/01/31 07:46:48;;;;;;;6.03;3.80;;;5.10;1.00;5.50;67469.00;;;;5063503;28;20474;-80
2022/01/31 07:49:21;;;;;;;5.60;3.63;;;5.10;1.00;5.60;67498.00;;;;5063027;28;20507;-81
2022/01/31 07:51:49;;;;;;;5.73;3.13;;;5.20;1.00;5.80;67539.00;;;;5064974;28;20456;-83
2022/01/31 07:54:21;;;;;;;3.93;3.20;;;5.40;1.00;5.80;67539.00;;;;5066417;28;20488;-81
2022/01/31 07:56:50;;;;;;;6.23;3.33;;;5.40;1.00;217.30;159133.00;;;;5065006;28;21210;-80
2022/01/31 07:59:18;;;;;;;7.20;3.73;;;5.40;1.00;5.60;67504.00;;;;5065611;28;20484;-82
2022/01/31 08:01:46;;;;;;;4.30;2.90;;;5.30;1.00;217.30;159098.00;;;;5064552;28;20467;-82
2022/01/31 08:04:15;;;;;;;7.23;3.23;;;5.30;1.00;5.60;67509.00;;;;5070558;28;20439;-82
2022/01/31 08:06:44;;;;;;;5.27;3.03;;;5.30;1.00;5.80;67524.00;;;;5069264;28;20436;-81
2022/01/31 08:09:13;;;;;;;5.73;2.83;;;5.40;1.00;5.80;67549.00;;;;5066890;28;20479;-81
2022/01/31 08:11:41;;;;;;;6.60;2.60;;;5.50;1.00;5.90;67560.00;;;;5068376;28;20551;-81
2022/01/31 08:14:10;;;;;;;4.20;2.70;;;5.50;1.00;5.90;67565.00;;;;5069559;28;20460;-82
2022/01/31 08:16:39;;;;;;;7.10;3.03;;;5.50;1.00;217.30;159181.00;;;;5063059;28;20498;-81
2022/01/31 08:19:08;;;;;;;3.07;2.50;;;5.50;1.00;217.30;159197.00;;;;5064330;28;20549;-80
2022/01/31 08:21:57;;;;;;;3.90;2.40;;;5.50;1.00;217.30;159216.00;;;;5061673;28;20459;-80
2022/01/31 08:24:26;;;;;;;4.50;3.40;;;5.60;1.00;5.90;67565.00;;;;5060690;28;20452;-80
2022/01/31 08:26:56;;;;;;;6.57;3.57;;;5.60;1.00;6.00;67578.00;;;;5066472;28;20437;-80
2022/01/31 08:29:30;;;;;;;2.90;2.10;;;5.60;1.00;6.00;67585.00;;;;5062447;28;20519;-81
2022/01/31 08:32:08;;;;;;;4.13;2.57;;;5.60;1.00;6.10;67601.00;;;;5083537;28;20868;-81
2022/01/31 08:37:25;;;;;;;8.37;2.40;;;5.70;1.00;6.20;67634.00;;;;5067517;28;20460;-80
2022/01/31 08:39:54;;;;;;;4.63;2.23;;;5.80;1.00;6.30;67648.00;;;;5062630;28;20570;-81
2022/01/31 08:42:23;;;;;;;4.00;2.30;;;5.90;1.00;6.40;99638.00;;;;5059864;28;20491;-81
2022/01/31 08:44:51;;;;;;;4.37;2.50;;;6.00;1.00;217.30;159437.00;;;;5057788;28;20474;-83
2022/01/31 08:47:19;;;;;;;4.60;2.53;;;6.10;1.00;6.40;67677.00;;;;5061755;28;20531;-81
2022/01/31 08:49:49;;;;;;;4.53;2.27;;;6.10;1.00;217.30;159437.00;;;;5070020;28;20468;-82
2022/01/31 08:52:17;;;;;;;3.20;2.07;;;6.10;1.00;6.30;67648.00;;;;5068896;28;20490;-81
2022/01/31 08:54:47;;;;;;;3.43;2.20;;;5.90;1.00;6.20;99634.00;;;;5063298;28;20461;-82
2022/01/31 08:57:15;;;;;;;3.70;1.97;;;5.80;1.00;6.10;67614.00;;;;5061864;28;20800;-82
2022/01/31 08:59:50;;;;;;;5.77;2.20;;;5.80;1.00;217.30;159290.00;;;;5079933;28;20479;-82
2022/01/31 09:02:24;;;;;;;5.10;2.10;;;5.80;1.00;6.20;67617.00;;;;5061930;28;20442;-82
2022/01/31 09:04:52;;;;;;;3.23;2.20;;;5.90;1.00;6.30;67638.00;;;;5060109;28;20455;-81
2022/01/31 09:07:24;;;;;;;4.17;2.43;;;5.90;1.00;6.40;99622.00;;;;5059856;28;20451;-81
2022/01/31 09:09:54;;;;;;;7.83;3.10;;;6.00;1.00;217.30;159472.00;;;;5060215;28;20563;-80
2022/01/31 09:12:26;;;;;;;5.90;3.00;;;6.10;1.00;217.30;159476.00;;;;5071800;28;20464;-80
2022/01/31 09:14:55;;;;;;;3.80;2.27;;;6.20;1.00;6.60;67726.00;;;;5054865;28;20475;-81
2022/01/31 09:17:24;;;;;;;5.73;2.37;;;6.20;1.00;217.30;159565.00;;;;5055135;28;20486;-81
2022/01/31 09:19:52;;;;;;;3.10;2.10;;;6.30;1.00;6.60;67726.00;;;;5058893;28;21516;-82
2022/01/31 09:22:20;;;;;;;3.30;2.20;;;6.30;1.00;6.60;67715.00;;;;5057067;28;20455;-82
2022/01/31 09:24:50;;;;;;;5.13;2.53;;;6.20;1.00;6.50;67705.00;;;;5058771;28;20447;-81
2022/01/31 09:27:20;;;;;;;4.07;2.53;;;6.20;1.00;6.70;67740.00;;;;5065195;28;20539;-82
2022/01/31 09:29:48;;;;;;;4.20;2.50;;;6.30;1.00;6.90;67786.00;;;;5061131;28;20518;-80
2022/01/31 09:32:21;;;;;;;5.10;2.37;;;6.50;1.00;217.30;159693.00;;;;5059463;28;20464;-81
2022/01/31 09:34:49;;;;;;;3.90;2.27;;;6.60;1.00;7.00;67814.00;;;;5065897;28;20526;-81
2022/01/31 09:37:19;;;;;;;7.47;2.30;;;6.70;1.00;7.20;67857.00;;;;5069090;28;20539;-80
2022/01/31 09:39:48;;;;;;;5.40;2.50;;;6.80;1.00;7.30;99607.00;;;;5062147;28;20494;-81
2022/01/31 09:42:26;;;;;;;3.30;1.80;;;6.90;1.00;217.30;159766.00;;;;5069432;28;20484;-83
2022/01/31 09:45:10;;;;;;;4.40;1.90;;;6.80;1.00;7.10;67821.00;;;;5067075;28;20474;-80
2022/01/31 09:50:27;;;;;;;4.40;1.90;;;6.70;1.00;7.00;67821.00;;;;5076510;28;20472;-80
2022/01/31 09:52:56;;;;;;;5.50;1.93;;;6.70;1.00;7.10;67835.00;;;;5059750;28;20455;-80
2022/01/31 09:55:26;;;;;;;5.27;2.00;;;6.80;1.00;7.10;99616.00;;;;5060127;28;20548;-81
2022/01/31 09:57:55;;;;;;;4.20;1.70;;;6.80;1.00;7.10;99623.00;;;;5059040;28;20487;-81
2022/01/31 10:00:33;;;;;;;3.47;1.93;;;6.80;1.00;6.90;99615.00;;;;5056384;28;20480;-81
2022/01/31 10:03:07;;;;;;;6.57;1.60;;;6.70;1.00;7.00;99610.00;;;;5052482;28;20459;-81
2022/01/31 10:05:37;;;;;;;2.90;1.60;;;6.70;1.00;7.00;99613.00;;;;5050761;28;20447;-81
2022/01/31 10:08:16;;;;;;;4.50;1.97;;;6.70;1.00;217.30;159651.00;;;;5050659;28;20456;-81
2022/01/31 10:10:47;;;;;;;4.20;1.83;;;6.60;1.00;6.80;67762.00;;;;5056911;28;20487;-81
2022/01/31 10:16:26;;;;;;;3.47;1.80;;;6.50;1.00;6.90;67786.00;;;;5074221;28;20487;-82
2022/01/31 10:19:06;;;;;;;3.67;1.53;;;6.60;1.00;7.00;99592.00;;;;5056338;28;20566;-82
2022/01/31 10:22:00;;;;;;;3.30;1.20;;;6.70;1.00;7.10;67831.00;;;;5055261;28;20479;-82
2022/01/31 10:24:31;;;;;;;4.30;1.50;;;6.80;1.00;217.30;159797.00;;;;5056728;28;20449;-81
2022/01/31 10:27:08;;;;;;;2.27;1.27;;;6.90;1.00;7.50;67930.00;;;;5057202;28;20460;-81
2022/01/31 10:29:37;;;;;;;2.00;1.30;;;7.20;1.00;7.70;99576.00;;;;5055277;28;20493;-82
2022/01/31 10:32:10;;;;;;;2.20;1.23;;;7.40;1.00;7.80;67968.00;;;;5058368;28;20436;-81
2022/01/31 10:34:46;;;;;;;2.30;1.00;;;7.40;1.00;7.70;67971.00;;;;5055435;28;20455;-83
2022/01/31 10:37:18;;;;;;;4.03;1.57;;;7.50;1.00;8.00;99554.00;;;;5061370;28;20465;-82
2022/01/31 10:45:34;;;;;;;3.30;1.20;;;7.90;1.00;8.40;68098.00;;;;5060950;28;20490;-80
2022/01/31 10:54:37;;;;;;;2.27;1.13;;;7.80;1.00;217.30;160085.00;;;;5058754;28;20484;-81
2022/01/31 10:57:08;;;;;;;1.10;0.70;;;7.60;1.00;7.80;99553.00;;;;5066383;28;20458;-81
2022/01/31 10:59:40;;;;;;;2.27;1.23;;;7.50;1.00;7.60;67951.00;;;;5062116;28;20502;-81
2022/01/31 11:02:15;;;;;;;2.30;0.90;;;7.40;1.00;7.50;99566.00;;;;5064074;28;20521;-80
2022/01/31 11:04:46;;;;;;;2.80;0.90;;;7.20;1.00;7.40;99556.00;;;;5062462;28;20451;-81
2022/01/31 11:07:18;;;;;;;1.60;0.80;;;7.40;1.00;7.40;67888.00;;;;5061304;28;20463;-81
2022/01/31 11:09:49;;;;;;;2.43;0.70;;;7.10;1.00;7.30;99569.00;;;;5064828;28;20475;-81
2022/01/31 11:12:22;;;;;;;5.20;1.00;;;7.00;1.00;7.30;99560.00;;;;5063800;28;20452;-81
2022/01/31 11:14:53;;;;;;;2.20;1.10;;;7.10;1.00;52.70;159807.00;;;;5065517;28;20456;-81
2022/01/31 11:17:26;;;;;;;3.33;1.00;;;7.00;1.00;7.40;67885.00;;;;5066926;28;20474;-81
2022/01/31 11:20:00;;;;;;;2.33;0.80;;;7.10;1.00;7.40;67893.00;;;;5063997;28;20487;-82
2022/01/31 11:22:34;;;;;;;1.83;0.83;;;7.10;1.00;7.30;67878.00;;;;5059828;28;20455;-82
2022/01/31 11:25:21;;;;;;;1.87;0.97;;;7.00;1.00;7.20;99524.00;;;;5063519;28;20448;-82
2022/01/31 11:27:54;;;;;;;1.67;0.77;;;6.90;1.00;7.20;67848.00;;;;5058583;28;20530;-82
2022/01/31 11:30:24;;;;;;;1.97;0.80;;;7.10;1.00;7.10;99553.00;;;;5060457;28;20491;-84
2022/01/31 11:32:54;;;;;;;2.17;0.70;;;6.80;1.00;7.00;67814.00;;;;5061782;28;20448;-83
2022/01/31 11:35:25;;;;;;;3.47;0.93;;;6.70;1.00;7.00;99549.00;;;;5061360;28;20466;-82
2022/01/31 11:37:58;;;;;;;2.40;0.97;;;6.70;1.00;6.90;67794.00;;;;5059497;28;20455;-81
2022/01/31 11:40:27;;;;;;;1.50;0.70;;;6.60;1.00;217.30;159651.00;;;;5057907;28;20472;-81
2022/01/31 11:42:57;;;;;;;1.17;0.60;;;6.50;1.00;6.90;67748.00;;;;5062745;28;20452;-82
2022/01/31 11:45:30;;;;;;;2.17;0.70;;;6.50;1.00;6.70;99524.00;;;;5063489;28;21243;-81